Veterans Administration, California
Current Conditions -  °F | °C
As of 7:51 AM on Monday 24 Nov 2014 (Local Time) from KSMO Reporting Station
Clear Clear  
Wind Chill: 65°   Ceiling: Unl
Heat Index: 65°   Visibility: 10mi
Dew Point: 19°   Wind: 6mph
Humidity: 17%   Direction: NA
Pressure: 30.2"   Gusts: NA
Location:  34.0636°N, 118.465°W
Report Text: KSMO 241551Z VRB05KT 10SM CLR 18/M07 A3020 RMK AO2 SLP224 T01831072
Loading
Personal Weather Stations






























Interactive Weather Map New forecast layout! Learn more

10-Day Weather Forecast

Advertisements
Track Severe Weather on mobile